sensor_id;sensor_type;location;lat;lon;timestamp;pressure;altitude;pressure_sealevel;temperature;humidity
55486;BME280;49383;-25.924;28.194;2023-03-22T00:01:39;85236.88;;;20.01;47.08
55486;BME280;49383;-25.924;28.194;2023-03-22T00:04:04;85233.92;;;19.76;48.22
55486;BME280;49383;-25.924;28.194;2023-03-22T00:06:29;85232.36;;;19.84;49.50
55486;BME280;49383;-25.924;28.194;2023-03-22T00:08:54;85232.78;;;19.61;49.00
55486;BME280;49383;-25.924;28.194;2023-03-22T00:11:21;85235.10;;;19.80;45.93
55486;BME280;49383;-25.924;28.194;2023-03-22T00:13:44;85237.55;;;19.68;48.85
55486;BME280;49383;-25.924;28.194;2023-03-22T00:16:10;85235.90;;;19.89;49.18
55486;BME280;49383;-25.924;28.194;2023-03-22T00:18:35;85235.55;;;19.79;46.81
55486;BME280;49383;-25.924;28.194;2023-03-22T00:21:00;85237.11;;;19.68;47.95
55486;BME280;49383;-25.924;28.194;2023-03-22T00:23:25;85237.85;;;20.06;49.11
55486;BME280;49383;-25.924;28.194;2023-03-22T00:25:50;85238.00;;;19.56;48.94
55486;BME280;49383;-25.924;28.194;2023-03-22T00:28:16;85241.44;;;19.75;46.01
55486;BME280;49383;-25.924;28.194;2023-03-22T00:30:40;85243.25;;;19.91;48.69
55486;BME280;49383;-25.924;28.194;2023-03-22T00:33:05;85242.61;;;19.59;48.84
55486;BME280;49383;-25.924;28.194;2023-03-22T00:35:30;85242.37;;;19.73;45.48
55486;BME280;49383;-25.924;28.194;2023-03-22T00:37:55;85245.64;;;19.51;48.31
55486;BME280;49383;-25.924;28.194;2023-03-22T00:40:20;85247.18;;;19.39;49.21
55486;BME280;49383;-25.924;28.194;2023-03-22T00:42:45;85251.53;;;19.84;48.14
55486;BME280;49383;-25.924;28.194;2023-03-22T00:45:12;85248.87;;;19.70;47.16
55486;BME280;49383;-25.924;28.194;2023-03-22T00:47:36;85246.26;;;19.49;48.94
55486;BME280;49383;-25.924;28.194;2023-03-22T00:50:01;85245.38;;;20.01;48.83
55486;BME280;49383;-25.924;28.194;2023-03-22T00:52:26;85246.87;;;19.65;45.96
55486;BME280;49383;-25.924;28.194;2023-03-22T00:54:51;85250.19;;;19.62;48.88
55486;BME280;49383;-25.924;28.194;2023-03-22T00:57:16;85250.00;;;19.47;48.97
55486;BME280;49383;-25.924;28.194;2023-03-22T00:59:41;85245.59;;;19.70;45.56
55486;BME280;49383;-25.924;28.194;2023-03-22T01:02:06;85243.87;;;19.57;48.40
55486;BME280;49383;-25.924;28.194;2023-03-22T01:04:32;85244.58;;;19.74;49.07
55486;BME280;49383;-25.924;28.194;2023-03-22T01:06:56;85246.47;;;19.59;47.75
55486;BME280;49383;-25.924;28.194;2023-03-22T01:09:22;85246.32;;;19.86;45.34
55486;BME280;49383;-25.924;28.194;2023-03-22T01:11:47;85245.46;;;19.47;48.78
55486;BME280;49383;-25.924;28.194;2023-03-22T01:14:12;85246.15;;;19.47;49.42
55486;BME280;49383;-25.924;28.194;2023-03-22T01:16:37;85245.44;;;19.74;45.95
55486;BME280;49383;-25.924;28.194;2023-03-22T01:19:03;85242.88;;;19.71;48.33
55486;BME280;49383;-25.924;28.194;2023-03-22T01:21:27;85241.57;;;19.82;49.90
55486;BME280;49383;-25.924;28.194;2023-03-22T01:23:53;85243.01;;;19.91;48.95
55486;BME280;49383;-25.924;28.194;2023-03-22T01:26:18;85243.71;;;19.51;45.30
55486;BME280;49383;-25.924;28.194;2023-03-22T01:28:43;85245.77;;;19.65;49.24
55486;BME280;49383;-25.924;28.194;2023-03-22T01:31:08;85248.03;;;19.77;50.15
55486;BME280;49383;-25.924;28.194;2023-03-22T01:33:33;85243.97;;;19.62;47.49
55486;BME280;49383;-25.924;28.194;2023-03-22T01:35:58;85243.92;;;19.47;48.10
55486;BME280;49383;-25.924;28.194;2023-03-22T01:38:23;85246.45;;;19.84;50.09
55486;BME280;49383;-25.924;28.194;2023-03-22T01:40:48;85244.83;;;19.57;49.17
55486;BME280;49383;-25.924;28.194;2023-03-22T01:43:15;85244.60;;;19.67;46.87
55486;BME280;49383;-25.924;28.194;2023-03-22T01:45:42;85246.54;;;19.81;50.01
55486;BME280;49383;-25.924;28.194;2023-03-22T01:48:08;85244.80;;;19.48;49.81
55486;BME280;49383;-25.924;28.194;2023-03-22T01:50:29;85244.16;;;20.01;46.17
55486;BME280;49383;-25.924;28.194;2023-03-22T01:52:54;85244.76;;;19.56;48.66
55486;BME280;49383;-25.924;28.194;2023-03-22T01:55:19;85248.45;;;19.74;50.08
55486;BME280;49383;-25.924;28.194;2023-03-22T01:57:44;85245.03;;;19.39;49.34
55486;BME280;49383;-25.924;28.194;2023-03-22T02:00:11;85242.28;;;19.73;48.54
55486;BME280;49383;-25.924;28.194;2023-03-22T02:02:34;85242.58;;;19.43;50.70
55486;BME280;49383;-25.924;28.194;2023-03-22T02:04:59;85240.66;;;19.61;49.78
55486;BME280;49383;-25.924;28.194;2023-03-22T02:07:24;85238.95;;;19.66;46.03
55486;BME280;49383;-25.924;28.194;2023-03-22T02:09:49;85240.25;;;19.93;49.49
55486;BME280;49383;-25.924;28.194;2023-03-22T02:12:20;85240.89;;;19.63;50.50
55486;BME280;49383;-25.924;28.194;2023-03-22T02:14:51;85241.25;;;19.54;48.18
55486;BME280;49383;-25.924;28.194;2023-03-22T02:17:17;85240.55;;;19.62;48.53
55486;BME280;49383;-25.924;28.194;2023-03-22T02:22:07;85246.08;;;19.49;50.28
55486;BME280;49383;-25.924;28.194;2023-03-22T02:24:30;85242.62;;;19.67;46.04
55486;BME280;49383;-25.924;28.194;2023-03-22T02:29:14;85244.68;;;19.68;50.62
55486;BME280;49383;-25.924;28.194;2023-03-22T02:41:22;85255.30;;;19.66;47.87
55486;BME280;49383;-25.924;28.194;2023-03-22T02:43:45;85255.92;;;19.78;50.54
55486;BME280;49383;-25.924;28.194;2023-03-22T02:46:10;85256.94;;;19.39;50.93
55486;BME280;49383;-25.924;28.194;2023-03-22T02:48:33;85255.38;;;19.56;46.97
55486;BME280;49383;-25.924;28.194;2023-03-22T02:51:00;85254.99;;;19.52;50.16
55486;BME280;49383;-25.924;28.194;2023-03-22T02:53:25;85257.74;;;19.86;51.15
55486;BME280;49383;-25.924;28.194;2023-03-22T02:55:51;85254.88;;;19.52;48.01
55486;BME280;49383;-25.924;28.194;2023-03-22T02:58:14;85253.88;;;19.71;50.00
55486;BME280;49383;-25.924;28.194;2023-03-22T03:00:37;85253.36;;;19.70;51.22
55486;BME280;49383;-25.924;28.194;2023-03-22T03:03:05;85256.57;;;19.86;50.15
55486;BME280;49383;-25.924;28.194;2023-03-22T03:05:30;85257.43;;;19.51;48.12
55486;BME280;49383;-25.924;28.194;2023-03-22T03:07:55;85259.36;;;19.44;50.93
55486;BME280;49383;-25.924;28.194;2023-03-22T03:10:17;85262.94;;;19.83;51.48
55486;BME280;49383;-25.924;28.194;2023-03-22T03:12:42;85264.97;;;19.51;47.69
55486;BME280;49383;-25.924;28.194;2023-03-22T03:15:13;85267.55;;;19.40;50.06
55486;BME280;49383;-25.924;28.194;2023-03-22T03:17:43;85269.64;;;19.63;51.92
55486;BME280;49383;-25.924;28.194;2023-03-22T03:20:09;85273.41;;;19.62;50.99
55486;BME280;49383;-25.924;28.194;2023-03-22T03:22:33;85272.91;;;19.61;47.34
55486;BME280;49383;-25.924;28.194;2023-03-22T03:24:50;85275.62;;;19.87;50.60
55486;BME280;49383;-25.924;28.194;2023-03-22T03:27:15;85280.43;;;19.61;51.38
55486;BME280;49383;-25.924;28.194;2023-03-22T03:29:39;85280.73;;;19.48;48.52
55486;BME280;49383;-25.924;28.194;2023-03-22T03:32:07;85285.95;;;19.47;49.79
55486;BME280;49383;-25.924;28.194;2023-03-22T03:34:32;85288.07;;;19.67;51.75
55486;BME280;49383;-25.924;28.194;2023-03-22T03:36:57;85287.51;;;19.60;51.77
55486;BME280;49383;-25.924;28.194;2023-03-22T03:39:18;85287.32;;;19.47;47.74
55486;BME280;49383;-25.924;28.194;2023-03-22T03:41:44;85288.64;;;19.78;50.81
55486;BME280;49383;-25.924;28.194;2023-03-22T03:44:08;85290.53;;;19.54;52.13
55486;BME280;49383;-25.924;28.194;2023-03-22T03:46:33;85290.73;;;19.47;48.81
55486;BME280;49383;-25.924;28.194;2023-03-22T03:48:58;85292.83;;;19.64;49.26
55486;BME280;49383;-25.924;28.194;2023-03-22T03:51:23;85293.35;;;20.00;51.38
55486;BME280;49383;-25.924;28.194;2023-03-22T03:53:48;85293.55;;;19.76;51.77
55486;BME280;49383;-25.924;28.194;2023-03-22T03:56:13;85292.23;;;19.71;47.44
55486;BME280;49383;-25.924;28.194;2023-03-22T03:58:38;85293.45;;;19.97;50.15
55486;BME280;49383;-25.924;28.194;2023-03-22T04:01:03;85293.46;;;19.34;52.05
55486;BME280;49383;-25.924;28.194;2023-03-22T04:03:28;85296.69;;;19.47;51.80
55486;BME280;49383;-25.924;28.194;2023-03-22T04:05:53;85295.73;;;19.68;47.95
55486;BME280;49383;-25.924;28.194;2023-03-22T04:08:18;85295.70;;;19.81;51.12
55486;BME280;49383;-25.924;28.194;2023-03-22T04:10:48;85301.76;;;19.73;52.36
55486;BME280;49383;-25.924;28.194;2023-03-22T04:13:09;85304.74;;;19.65;49.00
55486;BME280;49383;-25.924;28.194;2023-03-22T04:15:34;85310.18;;;19.96;50.07
55486;BME280;49383;-25.924;28.194;2023-03-22T04:17:59;85314.36;;;19.38;52.13
55486;BME280;49383;-25.924;28.194;2023-03-22T04:20:24;85318.53;;;19.48;51.71
55486;BME280;49383;-25.924;28.194;2023-03-22T04:22:49;85315.02;;;19.40;47.45
55486;BME280;49383;-25.924;28.194;2023-03-22T04:25:15;85319.43;;;19.80;51.65
55486;BME280;49383;-25.924;28.194;2023-03-22T04:27:40;85317.47;;;19.51;51.87
55486;BME280;49383;-25.924;28.194;2023-03-22T04:30:06;85318.64;;;19.58;47.69
55486;BME280;49383;-25.924;28.194;2023-03-22T04:32:29;85325.04;;;19.99;50.65
55486;BME280;49383;-25.924;28.194;2023-03-22T04:34:54;85326.50;;;19.52;52.00
55486;BME280;49383;-25.924;28.194;2023-03-22T04:37:20;85328.37;;;19.92;48.20
55486;BME280;49383;-25.924;28.194;2023-03-22T04:39:45;85329.26;;;19.60;49.78
55486;BME280;49383;-25.924;28.194;2023-03-22T04:42:10;85334.86;;;19.68;51.39
55486;BME280;49383;-25.924;28.194;2023-03-22T04:44:35;85338.27;;;19.49;48.67
55486;BME280;49383;-25.924;28.194;2023-03-22T04:47:01;85342.92;;;19.58;49.14
55486;BME280;49383;-25.924;28.194;2023-03-22T04:49:25;85345.29;;;19.54;51.65
55486;BME280;49383;-25.924;28.194;2023-03-22T04:51:51;85349.19;;;19.55;48.54
55486;BME280;49383;-25.924;28.194;2023-03-22T04:54:16;85352.73;;;19.65;48.80
55486;BME280;49383;-25.924;28.194;2023-03-22T04:56:41;85360.17;;;19.54;51.41
55486;BME280;49383;-25.924;28.194;2023-03-22T04:59:06;85359.68;;;19.55;47.48
55486;BME280;49383;-25.924;28.194;2023-03-22T05:01:31;85359.43;;;19.45;47.17
55486;BME280;49383;-25.924;28.194;2023-03-22T05:03:56;85360.21;;;19.38;47.23
55486;BME280;49383;-25.924;28.194;2023-03-22T05:06:21;85361.54;;;19.30;47.17
55486;BME280;49383;-25.924;28.194;2023-03-22T05:08:46;85362.78;;;19.54;47.17
55486;BME280;49383;-25.924;28.194;2023-03-22T05:11:13;85365.05;;;19.43;46.82
55486;BME280;49383;-25.924;28.194;2023-03-22T05:13:36;85369.26;;;19.41;46.74
55486;BME280;49383;-25.924;28.194;2023-03-22T05:16:02;85371.85;;;19.93;46.62
55486;BME280;49383;-25.924;28.194;2023-03-22T05:18:26;85374.30;;;19.71;46.14
55486;BME280;49383;-25.924;28.194;2023-03-22T05:20:53;85374.31;;;19.59;45.95
55486;BME280;49383;-25.924;28.194;2023-03-22T05:23:17;85372.89;;;19.82;45.93
55486;BME280;49383;-25.924;28.194;2023-03-22T05:25:42;85371.62;;;20.38;45.78
55486;BME280;49383;-25.924;28.194;2023-03-22T05:28:07;85368.51;;;19.95;45.68
55486;BME280;49383;-25.924;28.194;2023-03-22T05:30:32;85367.61;;;20.00;45.60
55486;BME280;49383;-25.924;28.194;2023-03-22T05:32:58;85369.47;;;20.01;45.63
55486;BME280;49383;-25.924;28.194;2023-03-22T05:35:22;85369.67;;;20.04;45.67
55486;BME280;49383;-25.924;28.194;2023-03-22T05:37:47;85371.71;;;20.18;44.41
55486;BME280;49383;-25.924;28.194;2023-03-22T05:40:13;85373.10;;;20.24;44.76
55486;BME280;49383;-25.924;28.194;2023-03-22T05:42:38;85374.14;;;20.27;44.98
55486;BME280;49383;-25.924;28.194;2023-03-22T05:45:04;85378.06;;;20.37;43.79
55486;BME280;49383;-25.924;28.194;2023-03-22T05:47:28;85379.04;;;20.16;42.50
55486;BME280;49383;-25.924;28.194;2023-03-22T05:49:53;85382.66;;;20.30;41.84
55486;BME280;49383;-25.924;28.194;2023-03-22T05:52:19;85384.15;;;20.64;42.21
55486;BME280;49383;-25.924;28.194;2023-03-22T05:54:44;85381.57;;;20.48;42.69
55486;BME280;49383;-25.924;28.194;2023-03-22T05:57:10;85382.47;;;20.46;42.05
55486;BME280;49383;-25.924;28.194;2023-03-22T05:59:35;85380.19;;;20.78;42.17
55486;BME280;49383;-25.924;28.194;2023-03-22T06:02:00;85385.18;;;20.84;42.61
55486;BME280;49383;-25.924;28.194;2023-03-22T06:04:26;85386.84;;;20.68;41.67
55486;BME280;49383;-25.924;28.194;2023-03-22T06:06:51;85385.06;;;20.90;42.26
55486;BME280;49383;-25.924;28.194;2023-03-22T06:09:16;85390.29;;;20.76;41.28
55486;BME280;49383;-25.924;28.194;2023-03-22T06:11:42;85393.52;;;20.97;40.16
55486;BME280;49383;-25.924;28.194;2023-03-22T06:14:07;85398.19;;;21.22;39.33
55486;BME280;49383;-25.924;28.194;2023-03-22T06:16:32;85400.64;;;20.81;39.21
55486;BME280;49383;-25.924;28.194;2023-03-22T06:18:57;85402.75;;;21.34;40.03
55486;BME280;49383;-25.924;28.194;2023-03-22T06:21:23;85402.11;;;21.06;42.29
55486;BME280;49383;-25.924;28.194;2023-03-22T06:23:48;85403.20;;;21.42;42.34
55486;BME280;49383;-25.924;28.194;2023-03-22T06:26:13;85398.00;;;21.79;39.52
55486;BME280;49383;-25.924;28.194;2023-03-22T06:28:39;85395.02;;;21.35;39.53
55486;BME280;49383;-25.924;28.194;2023-03-22T06:31:06;85394.68;;;21.31;39.48
55486;BME280;49383;-25.924;28.194;2023-03-22T06:33:29;85393.20;;;21.44;38.69
55486;BME280;49383;-25.924;28.194;2023-03-22T06:35:55;85395.23;;;21.04;39.21
55486;BME280;49383;-25.924;28.194;2023-03-22T06:38:20;85387.79;;;21.51;39.12
55486;BME280;49383;-25.924;28.194;2023-03-22T06:40:45;85387.25;;;21.71;38.40
55486;BME280;49383;-25.924;28.194;2023-03-22T06:43:10;85391.90;;;22.31;39.23
55486;BME280;49383;-25.924;28.194;2023-03-22T06:45:35;85396.44;;;21.97;40.30
55486;BME280;49383;-25.924;28.194;2023-03-22T06:48:00;85398.99;;;21.73;40.18
55486;BME280;49383;-25.924;28.194;2023-03-22T06:50:26;85396.54;;;21.94;38.95
55486;BME280;49383;-25.924;28.194;2023-03-22T06:52:50;85402.98;;;22.06;38.34
55486;BME280;49383;-25.924;28.194;2023-03-22T06:55:15;85400.52;;;21.92;37.71
55486;BME280;49383;-25.924;28.194;2023-03-22T06:57:41;85397.79;;;21.98;36.99
55486;BME280;49383;-25.924;28.194;2023-03-22T07:00:07;85401.78;;;22.35;36.23
55486;BME280;49383;-25.924;28.194;2023-03-22T07:02:31;85400.43;;;22.51;34.87
55486;BME280;49383;-25.924;28.194;2023-03-22T07:04:56;85406.27;;;21.78;34.46
55486;BME280;49383;-25.924;28.194;2023-03-22T07:07:22;85408.29;;;21.81;33.81
55486;BME280;49383;-25.924;28.194;2023-03-22T07:09:47;85408.77;;;22.13;32.46
55486;BME280;49383;-25.924;28.194;2023-03-22T07:12:12;85404.48;;;22.48;32.76
55486;BME280;49383;-25.924;28.194;2023-03-22T07:14:37;85404.14;;;22.58;32.94
55486;BME280;49383;-25.924;28.194;2023-03-22T07:17:02;85406.11;;;22.54;33.50
55486;BME280;49383;-25.924;28.194;2023-03-22T07:19:28;85408.69;;;22.28;33.59
55486;BME280;49383;-25.924;28.194;2023-03-22T07:21:52;85407.98;;;22.30;33.65
55486;BME280;49383;-25.924;28.194;2023-03-22T07:24:17;85406.27;;;22.93;33.46
55486;BME280;49383;-25.924;28.194;2023-03-22T07:26:43;85407.38;;;22.04;33.62
55486;BME280;49383;-25.924;28.194;2023-03-22T07:29:08;85406.75;;;22.24;33.82
55486;BME280;49383;-25.924;28.194;2023-03-22T07:31:34;85405.38;;;22.34;33.85
55486;BME280;49383;-25.924;28.194;2023-03-22T07:33:58;85407.20;;;22.13;33.75
55486;BME280;49383;-25.924;28.194;2023-03-22T07:36:23;85406.54;;;22.61;33.88
55486;BME280;49383;-25.924;28.194;2023-03-22T07:38:48;85404.78;;;22.38;33.89
55486;BME280;49383;-25.924;28.194;2023-03-22T07:41:13;85407.97;;;22.48;33.48
55486;BME280;49383;-25.924;28.194;2023-03-22T07:43:38;85406.53;;;22.76;33.48
55486;BME280;49383;-25.924;28.194;2023-03-22T07:46:03;85405.10;;;22.32;33.13
55486;BME280;49383;-25.924;28.194;2023-03-22T07:48:28;85408.40;;;22.82;32.91
55486;BME280;49383;-25.924;28.194;2023-03-22T07:50:55;85406.26;;;22.57;33.22
55486;BME280;49383;-25.924;28.194;2023-03-22T07:53:18;85406.60;;;22.73;34.60
55486;BME280;49383;-25.924;28.194;2023-03-22T07:55:43;85407.10;;;22.53;34.98
55486;BME280;49383;-25.924;28.194;2023-03-22T07:58:09;85407.12;;;22.39;34.92
55486;BME280;49383;-25.924;28.194;2023-03-22T08:00:33;85407.71;;;22.22;34.52
55486;BME280;49383;-25.924;28.194;2023-03-22T08:02:58;85404.62;;;22.54;33.95
55486;BME280;49383;-25.924;28.194;2023-03-22T08:05:24;85396.31;;;22.59;33.30
55486;BME280;49383;-25.924;28.194;2023-03-22T08:07:49;85402.52;;;22.54;32.91
55486;BME280;49383;-25.924;28.194;2023-03-22T08:10:14;85399.65;;;22.10;32.65
55486;BME280;49383;-25.924;28.194;2023-03-22T08:12:39;85394.69;;;22.17;32.16
55486;BME280;49383;-25.924;28.194;2023-03-22T08:15:04;85392.42;;;22.04;31.02
55486;BME280;49383;-25.924;28.194;2023-03-22T08:17:29;85388.77;;;22.08;30.74
55486;BME280;49383;-25.924;28.194;2023-03-22T08:19:54;85386.41;;;22.28;30.30
55486;BME280;49383;-25.924;28.194;2023-03-22T08:22:19;85387.04;;;22.20;30.51
55486;BME280;49383;-25.924;28.194;2023-03-22T08:24:44;85383.53;;;22.92;30.73
55486;BME280;49383;-25.924;28.194;2023-03-22T08:27:09;85381.87;;;22.18;31.15
55486;BME280;49383;-25.924;28.194;2023-03-22T08:29:35;85378.76;;;22.22;31.28
55486;BME280;49383;-25.924;28.194;2023-03-22T08:32:00;85377.78;;;22.46;31.56
55486;BME280;49383;-25.924;28.194;2023-03-22T08:34:25;85373.43;;;22.41;31.38
55486;BME280;49383;-25.924;28.194;2023-03-22T08:36:50;85372.36;;;22.51;31.61
55486;BME280;49383;-25.924;28.194;2023-03-22T08:39:16;85366.88;;;22.47;32.54
55486;BME280;49383;-25.924;28.194;2023-03-22T08:41:41;85369.59;;;22.43;34.06
55486;BME280;49383;-25.924;28.194;2023-03-22T08:44:06;85362.70;;;22.87;35.72
55486;BME280;49383;-25.924;28.194;2023-03-22T08:46:31;85363.83;;;22.82;36.77
55486;BME280;49383;-25.924;28.194;2023-03-22T08:48:56;85362.81;;;22.39;37.38
55486;BME280;49383;-25.924;28.194;2023-03-22T08:51:22;85362.58;;;22.81;38.37
55486;BME280;49383;-25.924;28.194;2023-03-22T08:53:46;85360.99;;;22.66;39.42
55486;BME280;49383;-25.924;28.194;2023-03-22T08:56:11;85358.77;;;22.84;39.92
55486;BME280;49383;-25.924;28.194;2023-03-22T08:58:36;85353.03;;;22.42;39.48
55486;BME280;49383;-25.924;28.194;2023-03-22T09:01:01;85357.72;;;22.63;39.68
55486;BME280;49383;-25.924;28.194;2023-03-22T09:03:26;85353.20;;;22.69;39.47
55486;BME280;49383;-25.924;28.194;2023-03-22T09:05:51;85349.41;;;22.54;40.32
55486;BME280;49383;-25.924;28.194;2023-03-22T09:08:16;85348.32;;;22.43;39.33
55486;BME280;49383;-25.924;28.194;2023-03-22T09:10:41;85345.05;;;22.82;37.93
55486;BME280;49383;-25.924;28.194;2023-03-22T09:13:07;85343.12;;;22.46;37.93
55486;BME280;49383;-25.924;28.194;2023-03-22T09:15:33;85341.50;;;22.70;39.16
55486;BME280;49383;-25.924;28.194;2023-03-22T09:17:58;85338.34;;;22.68;40.96
55486;BME280;49383;-25.924;28.194;2023-03-22T09:20:23;85335.53;;;23.03;41.53
55486;BME280;49383;-25.924;28.194;2023-03-22T09:22:49;85334.47;;;22.73;40.87
55486;BME280;49383;-25.924;28.194;2023-03-22T09:25:14;85339.79;;;22.69;40.16
55486;BME280;49383;-25.924;28.194;2023-03-22T09:27:39;85339.63;;;22.57;38.71
55486;BME280;49383;-25.924;28.194;2023-03-22T09:30:06;85333.52;;;23.13;37.39
55486;BME280;49383;-25.924;28.194;2023-03-22T09:32:30;85326.88;;;22.74;36.48
55486;BME280;49383;-25.924;28.194;2023-03-22T09:34:56;85323.94;;;22.79;35.04
55486;BME280;49383;-25.924;28.194;2023-03-22T09:37:22;85322.01;;;22.71;34.76
55486;BME280;49383;-25.924;28.194;2023-03-22T09:39:47;85319.21;;;22.79;34.51
55486;BME280;49383;-25.924;28.194;2023-03-22T09:42:22;85318.68;;;23.01;35.14
55486;BME280;49383;-25.924;28.194;2023-03-22T09:44:41;85315.57;;;23.12;35.76
55486;BME280;49383;-25.924;28.194;2023-03-22T09:47:06;85314.08;;;23.20;36.83
55486;BME280;49383;-25.924;28.194;2023-03-22T09:49:32;85310.16;;;23.04;37.72
55486;BME280;49383;-25.924;28.194;2023-03-22T09:51:54;85310.03;;;22.95;38.39
55486;BME280;49383;-25.924;28.194;2023-03-22T09:54:26;85307.28;;;22.90;38.96
55486;BME280;49383;-25.924;28.194;2023-03-22T09:56:49;85306.38;;;22.74;39.44
55486;BME280;49383;-25.924;28.194;2023-03-22T09:59:14;85299.16;;;22.70;39.73
55486;BME280;49383;-25.924;28.194;2023-03-22T10:01:40;85293.91;;;22.66;39.96
55486;BME280;49383;-25.924;28.194;2023-03-22T10:04:11;85294.97;;;22.83;39.74
55486;BME280;49383;-25.924;28.194;2023-03-22T10:06:26;85293.12;;;22.63;40.27
55486;BME280;49383;-25.924;28.194;2023-03-22T10:08:57;85286.68;;;22.69;40.74
55486;BME280;49383;-25.924;28.194;2023-03-22T10:11:23;85280.97;;;22.70;40.78
55486;BME280;49383;-25.924;28.194;2023-03-22T10:13:47;85275.51;;;22.57;41.02
55486;BME280;49383;-25.924;28.194;2023-03-22T10:16:10;85282.37;;;22.17;40.94
55486;BME280;49383;-25.924;28.194;2023-03-22T10:18:34;85272.11;;;22.44;40.57
55486;BME280;49383;-25.924;28.194;2023-03-22T10:20:59;85269.63;;;22.33;41.09
55486;BME280;49383;-25.924;28.194;2023-03-22T10:23:26;85266.88;;;22.34;41.57
55486;BME280;49383;-25.924;28.194;2023-03-22T10:25:46;85265.65;;;22.25;41.84
55486;BME280;49383;-25.924;28.194;2023-03-22T10:28:17;85258.14;;;22.31;42.21
55486;BME280;49383;-25.924;28.194;2023-03-22T10:30:37;85252.74;;;22.05;42.33
55486;BME280;49383;-25.924;28.194;2023-03-22T10:33:02;85246.35;;;21.92;42.64
55486;BME280;49383;-25.924;28.194;2023-03-22T10:35:26;85246.77;;;21.92;42.74
55486;BME280;49383;-25.924;28.194;2023-03-22T10:37:53;85245.06;;;21.90;42.80
55486;BME280;49383;-25.924;28.194;2023-03-22T10:40:19;85240.19;;;21.96;42.75
55486;BME280;49383;-25.924;28.194;2023-03-22T10:42:49;85236.49;;;21.84;43.00
55486;BME280;49383;-25.924;28.194;2023-03-22T10:45:11;85232.14;;;21.93;43.22
55486;BME280;49383;-25.924;28.194;2023-03-22T10:47:34;85227.16;;;21.91;43.61
55486;BME280;49383;-25.924;28.194;2023-03-22T10:49:57;85221.68;;;21.65;43.72
55486;BME280;49383;-25.924;28.194;2023-03-22T10:52:35;85222.16;;;21.74;43.60
55486;BME280;49383;-25.924;28.194;2023-03-22T10:54:47;85223.50;;;21.89;43.06
55486;BME280;49383;-25.924;28.194;2023-03-22T10:57:12;85220.67;;;21.56;43.15
55486;BME280;49383;-25.924;28.194;2023-03-22T10:59:41;85216.78;;;21.87;43.43
55486;BME280;49383;-25.924;28.194;2023-03-22T11:02:02;85214.20;;;21.64;43.56
55486;BME280;49383;-25.924;28.194;2023-03-22T11:04:30;85214.30;;;21.76;43.71
55486;BME280;49383;-25.924;28.194;2023-03-22T11:06:52;85206.48;;;21.69;43.96
55486;BME280;49383;-25.924;28.194;2023-03-22T11:09:18;85205.42;;;21.58;44.19
55486;BME280;49383;-25.924;28.194;2023-03-22T11:11:49;85209.70;;;21.59;44.29
55486;BME280;49383;-25.924;28.194;2023-03-22T11:14:12;85196.69;;;21.43;44.26
55486;BME280;49383;-25.924;28.194;2023-03-22T11:16:41;85199.09;;;21.65;44.29
55486;BME280;49383;-25.924;28.194;2023-03-22T11:19:00;85191.57;;;21.56;44.44
55486;BME280;49383;-25.924;28.194;2023-03-22T11:21:26;85184.50;;;21.54;44.49
55486;BME280;49383;-25.924;28.194;2023-03-22T11:23:54;85193.04;;;21.70;44.33
55486;BME280;49383;-25.924;28.194;2023-03-22T11:26:14;85186.28;;;21.82;44.55
55486;BME280;49383;-25.924;28.194;2023-03-22T11:28:44;85180.95;;;21.53;44.62
55486;BME280;49383;-25.924;28.194;2023-03-22T11:31:10;85174.61;;;21.46;44.80
55486;BME280;49383;-25.924;28.194;2023-03-22T11:33:28;85177.02;;;21.57;44.60
55486;BME280;49383;-25.924;28.194;2023-03-22T11:35:55;85172.08;;;21.87;44.58
55486;BME280;49383;-25.924;28.194;2023-03-22T11:38:24;85167.97;;;21.63;44.55
55486;BME280;49383;-25.924;28.194;2023-03-22T11:40:48;85169.81;;;21.52;44.37
55486;BME280;49383;-25.924;28.194;2023-03-22T11:43:16;85166.94;;;21.75;44.33
55486;BME280;49383;-25.924;28.194;2023-03-22T11:45:36;85171.86;;;21.64;44.49
55486;BME280;49383;-25.924;28.194;2023-03-22T11:48:02;85167.68;;;21.68;44.37
55486;BME280;49383;-25.924;28.194;2023-03-22T11:50:28;85161.17;;;21.51;44.70
55486;BME280;49383;-25.924;28.194;2023-03-22T11:52:48;85159.72;;;21.42;44.91
55486;BME280;49383;-25.924;28.194;2023-03-22T11:55:15;85155.70;;;21.50;44.81
55486;BME280;49383;-25.924;28.194;2023-03-22T11:57:38;85149.70;;;21.25;44.85
55486;BME280;49383;-25.924;28.194;2023-03-22T12:00:11;85145.95;;;21.49;44.85
55486;BME280;49383;-25.924;28.194;2023-03-22T12:02:32;85150.91;;;21.40;45.03
55486;BME280;49383;-25.924;28.194;2023-03-22T12:04:59;85145.57;;;21.43;44.99
55486;BME280;49383;-25.924;28.194;2023-03-22T12:07:20;85145.58;;;21.47;44.96
55486;BME280;49383;-25.924;28.194;2023-03-22T12:09:48;85141.76;;;21.30;45.21
55486;BME280;49383;-25.924;28.194;2023-03-22T12:12:13;85145.02;;;21.37;45.19
55486;BME280;49383;-25.924;28.194;2023-03-22T12:14:42;85146.33;;;21.32;45.28
55486;BME280;49383;-25.924;28.194;2023-03-22T12:17:03;85145.21;;;21.41;45.08
55486;BME280;49383;-25.924;28.194;2023-03-22T12:21:49;85140.23;;;21.47;44.98
55486;BME280;49383;-25.924;28.194;2023-03-22T12:24:23;85135.45;;;21.38;45.21
55486;BME280;49383;-25.924;28.194;2023-03-22T12:26:39;85136.90;;;21.30;45.40
55486;BME280;49383;-25.924;28.194;2023-03-22T12:29:06;85136.27;;;21.15;45.64
55486;BME280;49383;-25.924;28.194;2023-03-22T12:31:32;85131.99;;;21.25;45.44
55486;BME280;49383;-25.924;28.194;2023-03-22T12:33:56;85134.21;;;21.20;45.57
55486;BME280;49383;-25.924;28.194;2023-03-22T12:36:25;85128.80;;;21.53;45.46
55486;BME280;49383;-25.924;28.194;2023-03-22T12:38:48;85126.90;;;21.49;45.60
55486;BME280;49383;-25.924;28.194;2023-03-22T12:41:13;85124.89;;;20.98;46.01
55486;BME280;49383;-25.924;28.194;2023-03-22T12:43:42;85120.06;;;21.38;46.20
55486;BME280;49383;-25.924;28.194;2023-03-22T12:46:02;85120.60;;;20.87;46.26